sensor_id;sensor_type;location;lat;lon;timestamp;temperature;humidity
30572;DHT22;17348;50.948;10.696;2023-04-06T00:01:18;-0.10;99.90
30572;DHT22;17348;50.948;10.696;2023-04-06T00:04:21;-0.10;99.90
30572;DHT22;17348;50.948;10.696;2023-04-06T00:07:23;-0.20;99.90
30572;DHT22;17348;50.948;10.696;2023-04-06T00:10:26;-0.20;99.90
30572;DHT22;17348;50.948;10.696;2023-04-06T00:13:28;-0.30;99.90
30572;DHT22;17348;50.948;10.696;2023-04-06T00:16:32;-0.30;99.90
30572;DHT22;17348;50.948;10.696;2023-04-06T00:19:35;-0.30;99.90
30572;DHT22;17348;50.948;10.696;2023-04-06T00:22:37;-0.40;99.90
30572;DHT22;17348;50.948;10.696;2023-04-06T00:25:39;-0.40;99.90
30572;DHT22;17348;50.948;10.696;2023-04-06T00:28:42;-0.40;99.90
30572;DHT22;17348;50.948;10.696;2023-04-06T00:31:45;-0.30;99.90
30572;DHT22;17348;50.948;10.696;2023-04-06T00:34:48;-0.50;99.90
30572;DHT22;17348;50.948;10.696;2023-04-06T00:37:50;-0.50;99.90
30572;DHT22;17348;50.948;10.696;2023-04-06T00:40:53;-0.50;99.90
30572;DHT22;17348;50.948;10.696;2023-04-06T00:43:56;-0.50;99.90
30572;DHT22;17348;50.948;10.696;2023-04-06T00:46:59;-0.50;99.90
30572;DHT22;17348;50.948;10.696;2023-04-06T00:50:02;-0.50;99.90
30572;DHT22;17348;50.948;10.696;2023-04-06T00:53:05;-0.60;99.90
30572;DHT22;17348;50.948;10.696;2023-04-06T00:56:07;-0.50;99.90
30572;DHT22;17348;50.948;10.696;2023-04-06T00:59:11;-0.60;99.90
30572;DHT22;17348;50.948;10.696;2023-04-06T01:02:15;-0.60;99.90
30572;DHT22;17348;50.948;10.696;2023-04-06T01:05:17;-0.60;99.90
30572;DHT22;17348;50.948;10.696;2023-04-06T01:08:19;-0.70;99.90
30572;DHT22;17348;50.948;10.696;2023-04-06T01:11:22;-0.70;99.90
30572;DHT22;17348;50.948;10.696;2023-04-06T01:14:25;-0.80;99.90
30572;DHT22;17348;50.948;10.696;2023-04-06T01:17:29;-0.70;99.90
30572;DHT22;17348;50.948;10.696;2023-04-06T01:20:31;-0.80;99.90
30572;DHT22;17348;50.948;10.696;2023-04-06T01:23:35;-0.80;99.90
30572;DHT22;17348;50.948;10.696;2023-04-06T01:26:38;-0.80;99.90
30572;DHT22;17348;50.948;10.696;2023-04-06T01:29:41;-0.80;99.90
30572;DHT22;17348;50.948;10.696;2023-04-06T01:32:46;-0.80;99.90
30572;DHT22;17348;50.948;10.696;2023-04-06T01:35:48;-0.90;99.90
30572;DHT22;17348;50.948;10.696;2023-04-06T01:38:52;-0.80;99.90
30572;DHT22;17348;50.948;10.696;2023-04-06T01:41:55;-0.90;99.90
30572;DHT22;17348;50.948;10.696;2023-04-06T01:44:57;-0.90;99.90
30572;DHT22;17348;50.948;10.696;2023-04-06T01:47:59;-0.90;99.90
30572;DHT22;17348;50.948;10.696;2023-04-06T01:51:02;-0.90;99.90
30572;DHT22;17348;50.948;10.696;2023-04-06T01:54:06;-0.90;99.90
30572;DHT22;17348;50.948;10.696;2023-04-06T01:57:09;-1.00;99.90
30572;DHT22;17348;50.948;10.696;2023-04-06T02:00:12;-1.00;99.90
30572;DHT22;17348;50.948;10.696;2023-04-06T02:03:15;-1.00;99.90
30572;DHT22;17348;50.948;10.696;2023-04-06T02:06:17;-1.00;99.90
30572;DHT22;17348;50.948;10.696;2023-04-06T02:09:21;-1.00;99.90
30572;DHT22;17348;50.948;10.696;2023-04-06T02:12:24;-1.00;99.90
30572;DHT22;17348;50.948;10.696;2023-04-06T02:15:26;-1.10;99.90
30572;DHT22;17348;50.948;10.696;2023-04-06T02:18:32;-1.00;99.90
30572;DHT22;17348;50.948;10.696;2023-04-06T02:21:34;-1.10;99.90
30572;DHT22;17348;50.948;10.696;2023-04-06T02:24:38;-1.10;99.90
30572;DHT22;17348;50.948;10.696;2023-04-06T02:27:41;-1.10;99.90
30572;DHT22;17348;50.948;10.696;2023-04-06T02:30:43;-1.00;99.90
30572;DHT22;17348;50.948;10.696;2023-04-06T02:33:46;-1.10;99.90
30572;DHT22;17348;50.948;10.696;2023-04-06T02:36:48;-1.10;99.90
30572;DHT22;17348;50.948;10.696;2023-04-06T02:39:52;-1.20;99.90
30572;DHT22;17348;50.948;10.696;2023-04-06T02:42:54;-1.20;99.90
30572;DHT22;17348;50.948;10.696;2023-04-06T02:45:57;-1.20;99.90
30572;DHT22;17348;50.948;10.696;2023-04-06T02:48:59;-1.20;99.90
30572;DHT22;17348;50.948;10.696;2023-04-06T02:52:02;-1.20;99.90
30572;DHT22;17348;50.948;10.696;2023-04-06T02:55:07;-1.30;99.90
30572;DHT22;17348;50.948;10.696;2023-04-06T02:58:09;-1.30;99.90
30572;DHT22;17348;50.948;10.696;2023-04-06T03:01:12;-1.30;99.90
30572;DHT22;17348;50.948;10.696;2023-04-06T03:04:14;-1.40;99.90
30572;DHT22;17348;50.948;10.696;2023-04-06T03:07:16;-1.40;99.90
30572;DHT22;17348;50.948;10.696;2023-04-06T03:10:20;-1.40;99.90
30572;DHT22;17348;50.948;10.696;2023-04-06T03:13:23;-1.50;99.90
30572;DHT22;17348;50.948;10.696;2023-04-06T03:16:25;-1.50;99.90
30572;DHT22;17348;50.948;10.696;2023-04-06T03:19:28;-1.50;99.90
30572;DHT22;17348;50.948;10.696;2023-04-06T03:22:30;-1.50;99.90
30572;DHT22;17348;50.948;10.696;2023-04-06T03:25:34;-1.60;99.90
30572;DHT22;17348;50.948;10.696;2023-04-06T03:28:36;-1.60;99.90
30572;DHT22;17348;50.948;10.696;2023-04-06T03:31:39;-1.60;99.90
30572;DHT22;17348;50.948;10.696;2023-04-06T03:34:41;-1.60;99.90
30572;DHT22;17348;50.948;10.696;2023-04-06T03:37:44;-1.70;99.90
30572;DHT22;17348;50.948;10.696;2023-04-06T03:40:50;-1.70;99.90
30572;DHT22;17348;50.948;10.696;2023-04-06T03:43:53;-1.70;99.90
30572;DHT22;17348;50.948;10.696;2023-04-06T03:46:55;-1.80;99.90
30572;DHT22;17348;50.948;10.696;2023-04-06T03:49:58;-1.80;99.90
30572;DHT22;17348;50.948;10.696;2023-04-06T03:53:00;-1.80;99.90
30572;DHT22;17348;50.948;10.696;2023-04-06T03:56:05;-1.80;99.90
30572;DHT22;17348;50.948;10.696;2023-04-06T03:59:08;-1.80;99.90
30572;DHT22;17348;50.948;10.696;2023-04-06T04:02:10;-1.80;99.90
30572;DHT22;17348;50.948;10.696;2023-04-06T04:05:13;-1.90;99.90
30572;DHT22;17348;50.948;10.696;2023-04-06T04:08:15;-1.90;99.90
30572;DHT22;17348;50.948;10.696;2023-04-06T04:11:19;-1.90;99.90
30572;DHT22;17348;50.948;10.696;2023-04-06T04:14:22;-1.90;99.90
30572;DHT22;17348;50.948;10.696;2023-04-06T04:17:24;-1.90;99.90
30572;DHT22;17348;50.948;10.696;2023-04-06T04:20:34;-2.00;99.90
30572;DHT22;17348;50.948;10.696;2023-04-06T04:23:36;-2.00;99.90
30572;DHT22;17348;50.948;10.696;2023-04-06T04:26:41;-2.00;99.90
30572;DHT22;17348;50.948;10.696;2023-04-06T04:29:43;-2.00;99.90
30572;DHT22;17348;50.948;10.696;2023-04-06T04:32:46;-2.00;99.90
30572;DHT22;17348;50.948;10.696;2023-04-06T04:35:48;-2.10;99.90
30572;DHT22;17348;50.948;10.696;2023-04-06T04:38:51;-2.00;99.90
30572;DHT22;17348;50.948;10.696;2023-04-06T04:41:55;-2.00;99.90
30572;DHT22;17348;50.948;10.696;2023-04-06T04:44:57;-2.00;99.90
30572;DHT22;17348;50.948;10.696;2023-04-06T04:48:00;-2.00;99.90
30572;DHT22;17348;50.948;10.696;2023-04-06T04:51:03;-2.00;99.90
30572;DHT22;17348;50.948;10.696;2023-04-06T04:54:06;-2.00;99.90
30572;DHT22;17348;50.948;10.696;2023-04-06T04:57:10;-2.00;99.90
30572;DHT22;17348;50.948;10.696;2023-04-06T05:00:13;-2.00;99.90
30572;DHT22;17348;50.948;10.696;2023-04-06T05:03:20;-1.90;99.90
30572;DHT22;17348;50.948;10.696;2023-04-06T05:06:23;-1.90;99.90
30572;DHT22;17348;50.948;10.696;2023-04-06T05:09:26;-1.60;99.90
30572;DHT22;17348;50.948;10.696;2023-04-06T05:12:30;-1.20;99.90
30572;DHT22;17348;50.948;10.696;2023-04-06T05:15:33;-1.00;99.90
30572;DHT22;17348;50.948;10.696;2023-04-06T05:18:36;-0.60;99.90
30572;DHT22;17348;50.948;10.696;2023-04-06T05:21:38;0.10;99.90
30572;DHT22;17348;50.948;10.696;2023-04-06T05:24:41;0.70;99.90
30572;DHT22;17348;50.948;10.696;2023-04-06T05:27:45;1.50;99.90
30572;DHT22;17348;50.948;10.696;2023-04-06T05:30:47;1.50;99.90
30572;DHT22;17348;50.948;10.696;2023-04-06T05:33:50;1.60;99.90
30572;DHT22;17348;50.948;10.696;2023-04-06T05:36:52;2.10;99.90
30572;DHT22;17348;50.948;10.696;2023-04-06T05:39:55;2.90;99.90
30572;DHT22;17348;50.948;10.696;2023-04-06T05:42:59;4.20;99.90
30572;DHT22;17348;50.948;10.696;2023-04-06T05:46:01;4.80;99.90
30572;DHT22;17348;50.948;10.696;2023-04-06T05:49:04;5.50;99.90
30572;DHT22;17348;50.948;10.696;2023-04-06T05:52:06;5.10;99.90
30572;DHT22;17348;50.948;10.696;2023-04-06T05:55:11;4.70;99.90
30572;DHT22;17348;50.948;10.696;2023-04-06T05:58:15;4.50;99.90
30572;DHT22;17348;50.948;10.696;2023-04-06T06:01:18;4.70;99.90
30572;DHT22;17348;50.948;10.696;2023-04-06T06:04:21;4.60;99.90
30572;DHT22;17348;50.948;10.696;2023-04-06T06:07:23;4.50;99.90
30572;DHT22;17348;50.948;10.696;2023-04-06T06:10:26;4.70;99.90
30572;DHT22;17348;50.948;10.696;2023-04-06T06:13:30;6.30;99.90
30572;DHT22;17348;50.948;10.696;2023-04-06T06:16:32;7.70;99.90
30572;DHT22;17348;50.948;10.696;2023-04-06T06:19:35;9.30;99.90
30572;DHT22;17348;50.948;10.696;2023-04-06T06:22:37;9.90;99.90
30572;DHT22;17348;50.948;10.696;2023-04-06T06:25:41;10.60;99.90
30572;DHT22;17348;50.948;10.696;2023-04-06T06:28:45;11.00;99.90
30572;DHT22;17348;50.948;10.696;2023-04-06T06:31:47;12.00;99.90
30572;DHT22;17348;50.948;10.696;2023-04-06T06:34:50;13.10;98.30
30572;DHT22;17348;50.948;10.696;2023-04-06T06:37:52;14.00;97.50
30572;DHT22;17348;50.948;10.696;2023-04-06T06:40:55;13.90;94.80
30572;DHT22;17348;50.948;10.696;2023-04-06T06:43:59;12.90;94.70
30572;DHT22;17348;50.948;10.696;2023-04-06T06:47:02;12.10;94.90
30572;DHT22;17348;50.948;10.696;2023-04-06T06:50:06;11.20;95.30
30572;DHT22;17348;50.948;10.696;2023-04-06T06:53:08;11.90;95.90
30572;DHT22;17348;50.948;10.696;2023-04-06T06:56:11;13.00;94.90
30572;DHT22;17348;50.948;10.696;2023-04-06T06:59:16;13.70;94.30
30572;DHT22;17348;50.948;10.696;2023-04-06T07:02:18;13.90;92.10
30572;DHT22;17348;50.948;10.696;2023-04-06T07:05:21;12.90;92.90
30572;DHT22;17348;50.948;10.696;2023-04-06T07:08:24;13.30;93.30
30572;DHT22;17348;50.948;10.696;2023-04-06T07:11:27;15.00;92.00
30572;DHT22;17348;50.948;10.696;2023-04-06T07:14:30;17.10;88.90
30572;DHT22;17348;50.948;10.696;2023-04-06T07:17:33;18.30;82.90
30572;DHT22;17348;50.948;10.696;2023-04-06T07:20:35;18.90;77.50
30572;DHT22;17348;50.948;10.696;2023-04-06T07:23:38;18.80;75.20
30572;DHT22;17348;50.948;10.696;2023-04-06T07:26:41;16.70;76.20
30572;DHT22;17348;50.948;10.696;2023-04-06T07:29:45;14.70;80.40
30572;DHT22;17348;50.948;10.696;2023-04-06T07:32:48;16.20;81.80
30572;DHT22;17348;50.948;10.696;2023-04-06T07:35:50;17.90;75.80
30572;DHT22;17348;50.948;10.696;2023-04-06T07:38:53;17.30;73.40
30572;DHT22;17348;50.948;10.696;2023-04-06T07:41:56;16.00;74.60
30572;DHT22;17348;50.948;10.696;2023-04-06T07:44:59;16.20;76.20
30572;DHT22;17348;50.948;10.696;2023-04-06T07:48:02;15.00;76.60
30572;DHT22;17348;50.948;10.696;2023-04-06T07:51:06;13.80;80.60
30572;DHT22;17348;50.948;10.696;2023-04-06T07:54:09;12.90;83.10
30572;DHT22;17348;50.948;10.696;2023-04-06T07:57:12;12.20;85.50
30572;DHT22;17348;50.948;10.696;2023-04-06T08:00:16;12.00;87.30
30572;DHT22;17348;50.948;10.696;2023-04-06T08:03:19;12.70;87.30
30572;DHT22;17348;50.948;10.696;2023-04-06T08:06:26;13.90;85.50
30572;DHT22;17348;50.948;10.696;2023-04-06T08:09:28;16.50;80.60
30572;DHT22;17348;50.948;10.696;2023-04-06T08:12:32;18.30;77.90
30572;DHT22;17348;50.948;10.696;2023-04-06T08:15:36;20.00;73.00
30572;DHT22;17348;50.948;10.696;2023-04-06T08:18:38;21.50;67.40
30572;DHT22;17348;50.948;10.696;2023-04-06T08:21:41;21.50;67.10
30572;DHT22;17348;50.948;10.696;2023-04-06T08:24:43;21.00;63.70
30572;DHT22;17348;50.948;10.696;2023-04-06T08:27:46;19.00;66.10
30572;DHT22;17348;50.948;10.696;2023-04-06T08:30:50;17.40;68.50
30572;DHT22;17348;50.948;10.696;2023-04-06T08:33:52;16.10;67.20
30572;DHT22;17348;50.948;10.696;2023-04-06T08:36:55;15.10;69.70
30572;DHT22;17348;50.948;10.696;2023-04-06T08:39:57;14.40;67.70
30572;DHT22;17348;50.948;10.696;2023-04-06T08:43:01;14.10;68.10
30572;DHT22;17348;50.948;10.696;2023-04-06T08:46:11;13.90;67.50
30572;DHT22;17348;50.948;10.696;2023-04-06T08:49:14;13.70;67.90
30572;DHT22;17348;50.948;10.696;2023-04-06T08:52:18;13.30;69.00
30572;DHT22;17348;50.948;10.696;2023-04-06T08:55:22;13.20;70.20
30572;DHT22;17348;50.948;10.696;2023-04-06T08:58:28;12.90;67.60
30572;DHT22;17348;50.948;10.696;2023-04-06T09:01:39;12.70;69.30
30572;DHT22;17348;50.948;10.696;2023-04-06T09:04:42;12.30;67.30
30572;DHT22;17348;50.948;10.696;2023-04-06T09:07:45;12.00;69.80
30572;DHT22;17348;50.948;10.696;2023-04-06T09:10:48;12.00;72.40
30572;DHT22;17348;50.948;10.696;2023-04-06T09:13:53;11.90;73.50
30572;DHT22;17348;50.948;10.696;2023-04-06T09:16:58;11.90;73.10
30572;DHT22;17348;50.948;10.696;2023-04-06T09:20:01;11.90;73.90
30572;DHT22;17348;50.948;10.696;2023-04-06T09:23:04;11.80;72.30
30572;DHT22;17348;50.948;10.696;2023-04-06T09:26:08;11.90;72.50
30572;DHT22;17348;50.948;10.696;2023-04-06T09:29:22;11.90;71.20
30572;DHT22;17348;50.948;10.696;2023-04-06T09:32:26;12.00;72.50
30572;DHT22;17348;50.948;10.696;2023-04-06T09:35:28;12.10;71.30
30572;DHT22;17348;50.948;10.696;2023-04-06T09:38:32;12.10;71.70
30572;DHT22;17348;50.948;10.696;2023-04-06T09:41:35;12.20;72.30
30572;DHT22;17348;50.948;10.696;2023-04-06T09:44:38;12.10;71.90
30572;DHT22;17348;50.948;10.696;2023-04-06T09:47:43;12.00;72.00
30572;DHT22;17348;50.948;10.696;2023-04-06T09:50:46;12.00;72.50
30572;DHT22;17348;50.948;10.696;2023-04-06T09:53:52;12.10;72.20
30572;DHT22;17348;50.948;10.696;2023-04-06T09:56:58;12.10;73.00
30572;DHT22;17348;50.948;10.696;2023-04-06T10:00:04;12.10;73.00
30572;DHT22;17348;50.948;10.696;2023-04-06T10:03:17;12.00;74.00
30572;DHT22;17348;50.948;10.696;2023-04-06T10:06:24;12.00;73.10
30572;DHT22;17348;50.948;10.696;2023-04-06T10:09:29;12.30;74.40
30572;DHT22;17348;50.948;10.696;2023-04-06T10:12:37;12.30;71.80
30572;DHT22;17348;50.948;10.696;2023-04-06T10:15:41;12.20;73.80
30572;DHT22;17348;50.948;10.696;2023-04-06T10:18:47;12.30;73.90
30572;DHT22;17348;50.948;10.696;2023-04-06T10:21:55;12.30;73.40
30572;DHT22;17348;50.948;10.696;2023-04-06T10:24:59;12.30;73.60
30572;DHT22;17348;50.948;10.696;2023-04-06T10:28:05;12.30;73.00
30572;DHT22;17348;50.948;10.696;2023-04-06T10:31:08;12.40;72.50
30572;DHT22;17348;50.948;10.696;2023-04-06T10:34:12;12.60;72.90
30572;DHT22;17348;50.948;10.696;2023-04-06T10:37:16;12.80;72.50
30572;DHT22;17348;50.948;10.696;2023-04-06T10:40:21;12.80;72.30
30572;DHT22;17348;50.948;10.696;2023-04-06T10:43:24;12.90;72.20
30572;DHT22;17348;50.948;10.696;2023-04-06T10:46:28;12.90;69.70
30572;DHT22;17348;50.948;10.696;2023-04-06T10:49:32;13.00;71.60
30572;DHT22;17348;50.948;10.696;2023-04-06T10:52:37;13.00;70.20
30572;DHT22;17348;50.948;10.696;2023-04-06T10:55:40;13.10;70.90
30572;DHT22;17348;50.948;10.696;2023-04-06T10:58:47;13.00;70.30
30572;DHT22;17348;50.948;10.696;2023-04-06T11:01:49;13.00;70.60
30572;DHT22;17348;50.948;10.696;2023-04-06T11:04:57;13.20;71.10
30572;DHT22;17348;50.948;10.696;2023-04-06T11:08:00;13.20;70.40
30572;DHT22;17348;50.948;10.696;2023-04-06T11:11:06;13.20;72.30
30572;DHT22;17348;50.948;10.696;2023-04-06T11:14:09;13.20;71.80
30572;DHT22;17348;50.948;10.696;2023-04-06T11:17:12;13.20;70.90
30572;DHT22;17348;50.948;10.696;2023-04-06T11:20:16;13.00;69.40
30572;DHT22;17348;50.948;10.696;2023-04-06T11:23:23;13.00;70.30
30572;DHT22;17348;50.948;10.696;2023-04-06T11:26:26;13.10;72.70
30572;DHT22;17348;50.948;10.696;2023-04-06T11:29:31;13.20;71.50
30572;DHT22;17348;50.948;10.696;2023-04-06T11:32:40;13.20;71.60
30572;DHT22;17348;50.948;10.696;2023-04-06T11:35:44;13.30;72.30
30572;DHT22;17348;50.948;10.696;2023-04-06T11:38:47;13.30;67.90
30572;DHT22;17348;50.948;10.696;2023-04-06T11:41:50;13.40;69.40
30572;DHT22;17348;50.948;10.696;2023-04-06T11:44:54;13.40;68.70
30572;DHT22;17348;50.948;10.696;2023-04-06T11:47:57;13.50;68.30
30572;DHT22;17348;50.948;10.696;2023-04-06T11:51:01;13.30;66.80
30572;DHT22;17348;50.948;10.696;2023-04-06T11:54:06;13.40;67.10
30572;DHT22;17348;50.948;10.696;2023-04-06T11:57:08;13.40;66.20
30572;DHT22;17348;50.948;10.696;2023-04-06T12:00:12;13.50;68.70
30572;DHT22;17348;50.948;10.696;2023-04-06T12:03:14;13.70;68.80
30572;DHT22;17348;50.948;10.696;2023-04-06T12:06:18;13.90;70.10
30572;DHT22;17348;50.948;10.696;2023-04-06T12:09:21;13.90;69.10
30572;DHT22;17348;50.948;10.696;2023-04-06T12:12:24;13.90;70.80
30572;DHT22;17348;50.948;10.696;2023-04-06T12:15:26;13.90;69.60
30572;DHT22;17348;50.948;10.696;2023-04-06T12:18:31;13.70;68.70
30572;DHT22;17348;50.948;10.696;2023-04-06T12:21:35;13.50;69.50
30572;DHT22;17348;50.948;10.696;2023-04-06T12:24:39;13.60;70.90
30572;DHT22;17348;50.948;10.696;2023-04-06T12:27:42;13.80;72.00
30572;DHT22;17348;50.948;10.696;2023-04-06T12:30:44;13.80;70.10
30572;DHT22;17348;50.948;10.696;2023-04-06T12:33:47;14.00;70.20
30572;DHT22;17348;50.948;10.696;2023-04-06T12:36:51;13.90;69.70
30572;DHT22;17348;50.948;10.696;2023-04-06T12:39:54;13.90;69.10
30572;DHT22;17348;50.948;10.696;2023-04-06T12:42:56;14.10;68.80
30572;DHT22;17348;50.948;10.696;2023-04-06T12:45:59;14.30;70.90
30572;DHT22;17348;50.948;10.696;2023-04-06T12:49:01;14.40;69.70
30572;DHT22;17348;50.948;10.696;2023-04-06T12:52:05;14.30;69.30
30572;DHT22;17348;50.948;10.696;2023-04-06T12:55:08;14.20;70.10
30572;DHT22;17348;50.948;10.696;2023-04-06T12:58:11;14.10;71.70
30572;DHT22;17348;50.948;10.696;2023-04-06T13:01:14;14.10;69.00
30572;DHT22;17348;50.948;10.696;2023-04-06T13:04:16;14.20;70.50
30572;DHT22;17348;50.948;10.696;2023-04-06T13:07:20;14.20;69.70
30572;DHT22;17348;50.948;10.696;2023-04-06T13:10:23;14.20;68.50
30572;DHT22;17348;50.948;10.696;2023-04-06T13:13:26;14.30;67.60
30572;DHT22;17348;50.948;10.696;2023-04-06T13:16:29;14.30;67.90
30572;DHT22;17348;50.948;10.696;2023-04-06T13:19:32;14.20;67.80
30572;DHT22;17348;50.948;10.696;2023-04-06T13:22:35;14.10;66.80
30572;DHT22;17348;50.948;10.696;2023-04-06T13:25:38;14.10;65.90
30572;DHT22;17348;50.948;10.696;2023-04-06T13:28:40;14.20;67.00
30572;DHT22;17348;50.948;10.696;2023-04-06T13:31:43;14.40;67.80
30572;DHT22;17348;50.948;10.696;2023-04-06T13:34:45;14.40;68.00
30572;DHT22;17348;50.948;10.696;2023-04-06T13:37:51;14.30;67.10
30572;DHT22;17348;50.948;10.696;2023-04-06T13:40:53;14.30;67.30
30572;DHT22;17348;50.948;10.696;2023-04-06T13:43:57;14.30;67.60
30572;DHT22;17348;50.948;10.696;2023-04-06T13:46:59;14.20;67.50
30572;DHT22;17348;50.948;10.696;2023-04-06T13:50:02;14.30;67.30
30572;DHT22;17348;50.948;10.696;2023-04-06T13:53:06;14.40;67.00
30572;DHT22;17348;50.948;10.696;2023-04-06T13:56:09;14.60;67.20
30572;DHT22;17348;50.948;10.696;2023-04-06T13:59:11;14.60;65.90
30572;DHT22;17348;50.948;10.696;2023-04-06T14:02:14;14.50;65.30
30572;DHT22;17348;50.948;10.696;2023-04-06T14:05:16;14.40;68.30
30572;DHT22;17348;50.948;10.696;2023-04-06T14:08:21;14.40;68.50
30572;DHT22;17348;50.948;10.696;2023-04-06T14:11:23;14.40;68.40
30572;DHT22;17348;50.948;10.696;2023-04-06T14:14:27;14.30;67.90
30572;DHT22;17348;50.948;10.696;2023-04-06T14:17:30;14.10;68.10
30572;DHT22;17348;50.948;10.696;2023-04-06T14:20:32;14.00;69.40
30572;DHT22;17348;50.948;10.696;2023-04-06T14:23:36;14.00;69.10
30572;DHT22;17348;50.948;10.696;2023-04-06T14:26:39;13.70;69.50
30572;DHT22;17348;50.948;10.696;2023-04-06T14:29:42;13.60;70.50
30572;DHT22;17348;50.948;10.696;2023-04-06T14:32:44;13.60;70.10
30572;DHT22;17348;50.948;10.696;2023-04-06T14:35:47;13.50;70.70
30572;DHT22;17348;50.948;10.696;2023-04-06T14:38:51;13.30;70.20
30572;DHT22;17348;50.948;10.696;2023-04-06T14:41:53;13.20;71.10
30572;DHT22;17348;50.948;10.696;2023-04-06T14:44:55;13.00;71.00
30572;DHT22;17348;50.948;10.696;2023-04-06T14:47:58;13.00;72.10
30572;DHT22;17348;50.948;10.696;2023-04-06T14:51:00;13.00;71.50
30572;DHT22;17348;50.948;10.696;2023-04-06T14:54:04;13.10;70.90
30572;DHT22;17348;50.948;10.696;2023-04-06T14:57:07;13.40;70.80
30572;DHT22;17348;50.948;10.696;2023-04-06T15:00:10;13.70;71.10
30572;DHT22;17348;50.948;10.696;2023-04-06T15:03:13;13.90;72.30
30572;DHT22;17348;50.948;10.696;2023-04-06T15:06:18;13.80;69.80
30572;DHT22;17348;50.948;10.696;2023-04-06T15:09:23;13.70;69.60
30572;DHT22;17348;50.948;10.696;2023-04-06T15:12:26;13.70;69.80
30572;DHT22;17348;50.948;10.696;2023-04-06T15:15:30;13.80;69.80
30572;DHT22;17348;50.948;10.696;2023-04-06T15:18:33;13.80;68.70
30572;DHT22;17348;50.948;10.696;2023-04-06T15:21:35;13.70;69.30
30572;DHT22;17348;50.948;10.696;2023-04-06T15:24:39;13.50;70.50
30572;DHT22;17348;50.948;10.696;2023-04-06T15:27:42;13.50;71.70
30572;DHT22;17348;50.948;10.696;2023-04-06T15:30:44;13.30;71.50
30572;DHT22;17348;50.948;10.696;2023-04-06T15:33:46;13.20;71.70
30572;DHT22;17348;50.948;10.696;2023-04-06T15:36:49;13.10;72.00
30572;DHT22;17348;50.948;10.696;2023-04-06T15:39:53;13.00;71.60
30572;DHT22;17348;50.948;10.696;2023-04-06T15:42:56;13.00;72.70
30572;DHT22;17348;50.948;10.696;2023-04-06T15:45:58;12.90;72.20
30572;DHT22;17348;50.948;10.696;2023-04-06T15:49:01;12.80;72.70
30572;DHT22;17348;50.948;10.696;2023-04-06T15:52:03;12.80;72.20
30572;DHT22;17348;50.948;10.696;2023-04-06T15:55:08;12.80;71.70
30572;DHT22;17348;50.948;10.696;2023-04-06T15:58:11;12.90;71.90
30572;DHT22;17348;50.948;10.696;2023-04-06T16:01:14;13.00;71.40
30572;DHT22;17348;50.948;10.696;2023-04-06T16:04:16;13.10;70.90
30572;DHT22;17348;50.948;10.696;2023-04-06T16:07:19;13.30;69.80
30572;DHT22;17348;50.948;10.696;2023-04-06T16:10:22;13.40;70.40
30572;DHT22;17348;50.948;10.696;2023-04-06T16:13:25;13.50;71.00
30572;DHT22;17348;50.948;10.696;2023-04-06T16:16:27;13.50;70.10
30572;DHT22;17348;50.948;10.696;2023-04-06T16:19:30;13.40;71.00
30572;DHT22;17348;50.948;10.696;2023-04-06T16:22:32;13.30;70.50
30572;DHT22;17348;50.948;10.696;2023-04-06T16:25:36;13.20;71.00
30572;DHT22;17348;50.948;10.696;2023-04-06T16:28:38;13.20;72.20
30572;DHT22;17348;50.948;10.696;2023-04-06T16:31:41;13.20;71.60
30572;DHT22;17348;50.948;10.696;2023-04-06T16:34:46;13.30;71.60
30572;DHT22;17348;50.948;10.696;2023-04-06T16:37:49;13.20;71.90
30572;DHT22;17348;50.948;10.696;2023-04-06T16:40:59;13.10;71.90
30572;DHT22;17348;50.948;10.696;2023-04-06T16:44:02;13.10;72.70
30572;DHT22;17348;50.948;10.696;2023-04-06T16:47:05;13.00;72.90
30572;DHT22;17348;50.948;10.696;2023-04-06T16:50:08;12.90;72.70
30572;DHT22;17348;50.948;10.696;2023-04-06T16:53:10;12.80;73.50
30572;DHT22;17348;50.948;10.696;2023-04-06T16:56:14;12.70;74.20
30572;DHT22;17348;50.948;10.696;2023-04-06T16:59:17;12.60;74.80
30572;DHT22;17348;50.948;10.696;2023-04-06T17:02:19;12.40;74.20
30572;DHT22;17348;50.948;10.696;2023-04-06T17:05:22;12.30;74.30
30572;DHT22;17348;50.948;10.696;2023-04-06T17:08:26;12.20;74.20
30572;DHT22;17348;50.948;10.696;2023-04-06T17:11:30;12.00;74.40
30572;DHT22;17348;50.948;10.696;2023-04-06T17:14:33;11.90;74.90
30572;DHT22;17348;50.948;10.696;2023-04-06T17:17:35;11.70;75.70
30572;DHT22;17348;50.948;10.696;2023-04-06T17:20:39;11.60;76.60
30572;DHT22;17348;50.948;10.696;2023-04-06T17:23:41;11.50;77.40
30572;DHT22;17348;50.948;10.696;2023-04-06T17:26:45;11.30;77.80
30572;DHT22;17348;50.948;10.696;2023-04-06T17:29:47;11.20;78.90
30572;DHT22;17348;50.948;10.696;2023-04-06T17:32:51;11.10;79.90
30572;DHT22;17348;50.948;10.696;2023-04-06T17:35:54;10.90;80.20
30572;DHT22;17348;50.948;10.696;2023-04-06T17:38:56;10.80;80.90
30572;DHT22;17348;50.948;10.696;2023-04-06T17:42:01;10.70;81.70
30572;DHT22;17348;50.948;10.696;2023-04-06T17:45:05;10.50;82.40
30572;DHT22;17348;50.948;10.696;2023-04-06T17:48:08;10.40;83.00
30572;DHT22;17348;50.948;10.696;2023-04-06T17:51:12;10.30;83.60
30572;DHT22;17348;50.948;10.696;2023-04-06T17:54:15;10.30;84.30
30572;DHT22;17348;50.948;10.696;2023-04-06T17:57:19;10.20;84.90
30572;DHT22;17348;50.948;10.696;2023-04-06T18:00:22;10.20;84.80
30572;DHT22;17348;50.948;10.696;2023-04-06T18:03:25;10.10;85.10
30572;DHT22;17348;50.948;10.696;2023-04-06T18:06:28;10.00;85.20
30572;DHT22;17348;50.948;10.696;2023-04-06T18:09:31;9.90;85.00
30572;DHT22;17348;50.948;10.696;2023-04-06T18:12:35;9.80;85.10
30572;DHT22;17348;50.948;10.696;2023-04-06T18:15:37;9.70;85.20
30572;DHT22;17348;50.948;10.696;2023-04-06T18:18:40;9.60;85.80
30572;DHT22;17348;50.948;10.696;2023-04-06T18:21:42;9.60;86.50
30572;DHT22;17348;50.948;10.696;2023-04-06T18:24:44;9.50;86.90
30572;DHT22;17348;50.948;10.696;2023-04-06T18:27:48;9.40;87.50
30572;DHT22;17348;50.948;10.696;2023-04-06T18:30:53;9.30;88.00
30572;DHT22;17348;50.948;10.696;2023-04-06T18:33:56;9.10;88.30
30572;DHT22;17348;50.948;10.696;2023-04-06T18:36:58;9.00;89.70
30572;DHT22;17348;50.948;10.696;2023-04-06T18:40:01;8.90;90.40
30572;DHT22;17348;50.948;10.696;2023-04-06T18:43:06;8.80;90.80
30572;DHT22;17348;50.948;10.696;2023-04-06T18:46:10;8.70;91.10
30572;DHT22;17348;50.948;10.696;2023-04-06T18:49:13;8.60;91.50
30572;DHT22;17348;50.948;10.696;2023-04-06T18:52:16;8.40;92.30
30572;DHT22;17348;50.948;10.696;2023-04-06T18:55:21;8.30;92.10
30572;DHT22;17348;50.948;10.696;2023-04-06T18:58:25;8.20;92.60
30572;DHT22;17348;50.948;10.696;2023-04-06T19:01:29;8.10;92.90